sensor_id;sensor_type;location;lat;lon;timestamp;P1;durP1;ratioP1;P2;durP2;ratioP2
62903;SDS011;49000;50.698;13.322;2023-04-06T00:00:45;4.70;;;3.53;;
62903;SDS011;49000;50.698;13.322;2023-04-06T00:03:11;5.33;;;3.43;;
62903;SDS011;49000;50.698;13.322;2023-04-06T00:05:36;5.27;;;4.13;;
62903;SDS011;49000;50.698;13.322;2023-04-06T00:08:02;5.93;;;3.53;;
62903;SDS011;49000;50.698;13.322;2023-04-06T00:10:27;5.27;;;3.17;;
62903;SDS011;49000;50.698;13.322;2023-04-06T00:12:53;6.20;;;3.30;;
62903;SDS011;49000;50.698;13.322;2023-04-06T00:15:20;4.97;;;3.10;;
62903;SDS011;49000;50.698;13.322;2023-04-06T00:17:45;5.63;;;3.57;;
62903;SDS011;49000;50.698;13.322;2023-04-06T00:20:11;9.13;;;4.60;;
62903;SDS011;49000;50.698;13.322;2023-04-06T00:22:36;5.23;;;3.43;;
62903;SDS011;49000;50.698;13.322;2023-04-06T00:25:02;7.00;;;3.70;;
62903;SDS011;49000;50.698;13.322;2023-04-06T00:27:27;4.67;;;3.60;;
62903;SDS011;49000;50.698;13.322;2023-04-06T00:29:53;6.00;;;3.67;;
62903;SDS011;49000;50.698;13.322;2023-04-06T00:32:18;6.27;;;4.00;;
62903;SDS011;49000;50.698;13.322;2023-04-06T00:34:44;5.47;;;3.30;;
62903;SDS011;49000;50.698;13.322;2023-04-06T00:37:10;6.40;;;4.30;;
62903;SDS011;49000;50.698;13.322;2023-04-06T00:39:36;9.60;;;4.40;;
62903;SDS011;49000;50.698;13.322;2023-04-06T00:42:03;8.17;;;4.80;;
62903;SDS011;49000;50.698;13.322;2023-04-06T00:44:35;8.87;;;4.63;;
62903;SDS011;49000;50.698;13.322;2023-04-06T00:47:00;6.13;;;4.87;;
62903;SDS011;49000;50.698;13.322;2023-04-06T00:49:26;6.60;;;4.60;;
62903;SDS011;49000;50.698;13.322;2023-04-06T00:51:52;7.10;;;5.20;;
62903;SDS011;49000;50.698;13.322;2023-04-06T00:54:17;5.43;;;4.67;;
62903;SDS011;49000;50.698;13.322;2023-04-06T00:56:43;7.53;;;4.93;;
62903;SDS011;49000;50.698;13.322;2023-04-06T00:59:09;6.60;;;4.40;;
62903;SDS011;49000;50.698;13.322;2023-04-06T01:01:35;7.00;;;4.70;;
62903;SDS011;49000;50.698;13.322;2023-04-06T01:04:01;7.40;;;4.90;;
62903;SDS011;49000;50.698;13.322;2023-04-06T01:06:27;9.87;;;5.00;;
62903;SDS011;49000;50.698;13.322;2023-04-06T01:08:53;6.73;;;4.90;;
62903;SDS011;49000;50.698;13.322;2023-04-06T01:11:19;9.67;;;5.07;;
62903;SDS011;49000;50.698;13.322;2023-04-06T01:13:44;7.90;;;5.07;;
62903;SDS011;49000;50.698;13.322;2023-04-06T01:16:10;7.70;;;5.07;;
62903;SDS011;49000;50.698;13.322;2023-04-06T01:18:37;7.50;;;5.00;;
62903;SDS011;49000;50.698;13.322;2023-04-06T01:21:03;7.53;;;5.40;;
62903;SDS011;49000;50.698;13.322;2023-04-06T01:23:29;6.07;;;4.67;;
62903;SDS011;49000;50.698;13.322;2023-04-06T01:25:54;7.73;;;5.33;;
62903;SDS011;49000;50.698;13.322;2023-04-06T01:28:20;8.63;;;5.17;;
62903;SDS011;49000;50.698;13.322;2023-04-06T01:30:45;7.63;;;5.20;;
62903;SDS011;49000;50.698;13.322;2023-04-06T01:33:11;6.53;;;5.03;;
62903;SDS011;49000;50.698;13.322;2023-04-06T01:35:36;9.87;;;4.80;;
62903;SDS011;49000;50.698;13.322;2023-04-06T01:38:02;8.13;;;5.10;;
62903;SDS011;49000;50.698;13.322;2023-04-06T01:40:27;9.17;;;4.90;;
62903;SDS011;49000;50.698;13.322;2023-04-06T01:42:53;7.97;;;5.07;;
62903;SDS011;49000;50.698;13.322;2023-04-06T01:45:18;6.87;;;4.33;;
62903;SDS011;49000;50.698;13.322;2023-04-06T01:47:44;4.90;;;4.30;;
62903;SDS011;49000;50.698;13.322;2023-04-06T01:50:10;5.77;;;4.27;;
62903;SDS011;49000;50.698;13.322;2023-04-06T01:52:36;5.80;;;4.07;;
62903;SDS011;49000;50.698;13.322;2023-04-06T01:55:02;7.60;;;4.27;;
62903;SDS011;49000;50.698;13.322;2023-04-06T01:57:28;6.70;;;3.97;;
62903;SDS011;49000;50.698;13.322;2023-04-06T01:59:53;5.27;;;3.80;;
62903;SDS011;49000;50.698;13.322;2023-04-06T02:02:19;7.13;;;4.03;;
62903;SDS011;49000;50.698;13.322;2023-04-06T02:04:44;7.90;;;4.17;;
62903;SDS011;49000;50.698;13.322;2023-04-06T02:07:10;5.77;;;3.70;;
62903;SDS011;49000;50.698;13.322;2023-04-06T02:09:35;5.73;;;3.90;;
62903;SDS011;49000;50.698;13.322;2023-04-06T02:12:01;6.00;;;4.30;;
62903;SDS011;49000;50.698;13.322;2023-04-06T02:14:27;4.70;;;3.80;;
62903;SDS011;49000;50.698;13.322;2023-04-06T02:16:52;6.87;;;4.30;;
62903;SDS011;49000;50.698;13.322;2023-04-06T02:19:18;7.33;;;4.47;;
62903;SDS011;49000;50.698;13.322;2023-04-06T02:21:43;6.40;;;4.50;;
62903;SDS011;49000;50.698;13.322;2023-04-06T02:24:09;9.70;;;4.37;;
62903;SDS011;49000;50.698;13.322;2023-04-06T02:26:34;5.87;;;4.27;;
62903;SDS011;49000;50.698;13.322;2023-04-06T02:29:00;6.27;;;4.40;;
62903;SDS011;49000;50.698;13.322;2023-04-06T02:31:27;6.17;;;3.63;;
62903;SDS011;49000;50.698;13.322;2023-04-06T02:33:52;6.47;;;4.20;;
62903;SDS011;49000;50.698;13.322;2023-04-06T02:36:18;5.47;;;4.03;;
62903;SDS011;49000;50.698;13.322;2023-04-06T02:38:43;6.70;;;4.50;;
62903;SDS011;49000;50.698;13.322;2023-04-06T02:41:09;4.80;;;4.27;;
62903;SDS011;49000;50.698;13.322;2023-04-06T02:43:34;6.63;;;4.83;;
62903;SDS011;49000;50.698;13.322;2023-04-06T02:46:00;7.50;;;4.77;;
62903;SDS011;49000;50.698;13.322;2023-04-06T02:48:25;6.37;;;4.27;;
62903;SDS011;49000;50.698;13.322;2023-04-06T02:50:51;9.63;;;4.90;;
62903;SDS011;49000;50.698;13.322;2023-04-06T02:53:16;6.83;;;4.80;;
62903;SDS011;49000;50.698;13.322;2023-04-06T02:55:42;8.20;;;5.13;;
62903;SDS011;49000;50.698;13.322;2023-04-06T02:58:07;8.30;;;4.90;;
62903;SDS011;49000;50.698;13.322;2023-04-06T03:00:33;7.83;;;4.70;;
62903;SDS011;49000;50.698;13.322;2023-04-06T03:02:58;7.37;;;4.77;;
62903;SDS011;49000;50.698;13.322;2023-04-06T03:05:24;5.43;;;4.20;;
62903;SDS011;49000;50.698;13.322;2023-04-06T03:07:49;7.57;;;5.60;;
62903;SDS011;49000;50.698;13.322;2023-04-06T03:10:15;9.77;;;5.07;;
62903;SDS011;49000;50.698;13.322;2023-04-06T03:12:40;7.10;;;5.17;;
62903;SDS011;49000;50.698;13.322;2023-04-06T03:15:06;7.40;;;4.67;;
62903;SDS011;49000;50.698;13.322;2023-04-06T03:17:32;9.23;;;5.10;;
62903;SDS011;49000;50.698;13.322;2023-04-06T03:19:58;6.67;;;4.47;;
62903;SDS011;49000;50.698;13.322;2023-04-06T03:22:23;7.43;;;4.47;;
62903;SDS011;49000;50.698;13.322;2023-04-06T03:24:49;6.10;;;4.60;;
62903;SDS011;49000;50.698;13.322;2023-04-06T03:27:14;6.00;;;4.67;;
62903;SDS011;49000;50.698;13.322;2023-04-06T03:29:40;7.33;;;4.77;;
62903;SDS011;49000;50.698;13.322;2023-04-06T03:32:05;6.43;;;4.67;;
62903;SDS011;49000;50.698;13.322;2023-04-06T03:34:31;7.17;;;5.00;;
62903;SDS011;49000;50.698;13.322;2023-04-06T03:36:56;6.87;;;5.20;;
62903;SDS011;49000;50.698;13.322;2023-04-06T03:39:22;9.13;;;5.10;;
62903;SDS011;49000;50.698;13.322;2023-04-06T03:41:47;7.90;;;5.23;;
62903;SDS011;49000;50.698;13.322;2023-04-06T03:44:13;7.93;;;5.70;;
62903;SDS011;49000;50.698;13.322;2023-04-06T03:46:38;7.83;;;5.60;;
62903;SDS011;49000;50.698;13.322;2023-04-06T03:49:04;7.40;;;5.10;;
62903;SDS011;49000;50.698;13.322;2023-04-06T03:51:29;7.57;;;5.93;;
62903;SDS011;49000;50.698;13.322;2023-04-06T03:53:55;8.00;;;5.10;;
62903;SDS011;49000;50.698;13.322;2023-04-06T03:56:21;7.20;;;4.53;;
62903;SDS011;49000;50.698;13.322;2023-04-06T03:58:46;8.77;;;5.30;;
62903;SDS011;49000;50.698;13.322;2023-04-06T04:01:15;10.37;;;5.73;;
62903;SDS011;49000;50.698;13.322;2023-04-06T04:03:41;8.57;;;5.90;;
62903;SDS011;49000;50.698;13.322;2023-04-06T04:06:07;11.33;;;6.00;;
62903;SDS011;49000;50.698;13.322;2023-04-06T04:08:32;8.73;;;5.17;;
62903;SDS011;49000;50.698;13.322;2023-04-06T04:10:58;7.97;;;6.33;;
62903;SDS011;49000;50.698;13.322;2023-04-06T04:13:23;7.33;;;5.47;;
62903;SDS011;49000;50.698;13.322;2023-04-06T04:15:49;8.30;;;5.73;;
62903;SDS011;49000;50.698;13.322;2023-04-06T04:18:14;8.50;;;5.63;;
62903;SDS011;49000;50.698;13.322;2023-04-06T04:20:40;8.33;;;5.80;;
62903;SDS011;49000;50.698;13.322;2023-04-06T04:23:05;7.70;;;5.60;;
62903;SDS011;49000;50.698;13.322;2023-04-06T04:25:31;8.70;;;6.10;;
62903;SDS011;49000;50.698;13.322;2023-04-06T04:27:56;7.10;;;6.10;;
62903;SDS011;49000;50.698;13.322;2023-04-06T04:30:22;6.33;;;5.47;;
62903;SDS011;49000;50.698;13.322;2023-04-06T04:32:48;9.07;;;6.00;;
62903;SDS011;49000;50.698;13.322;2023-04-06T04:35:13;9.10;;;5.77;;
62903;SDS011;49000;50.698;13.322;2023-04-06T04:37:40;6.90;;;6.10;;
62903;SDS011;49000;50.698;13.322;2023-04-06T04:40:06;8.23;;;5.47;;
62903;SDS011;49000;50.698;13.322;2023-04-06T04:42:33;10.17;;;6.10;;
62903;SDS011;49000;50.698;13.322;2023-04-06T04:44:59;7.33;;;6.10;;
62903;SDS011;49000;50.698;13.322;2023-04-06T04:47:24;9.40;;;6.57;;
62903;SDS011;49000;50.698;13.322;2023-04-06T04:49:50;8.47;;;6.20;;
62903;SDS011;49000;50.698;13.322;2023-04-06T04:52:15;9.90;;;6.90;;
62903;SDS011;49000;50.698;13.322;2023-04-06T04:54:41;8.27;;;6.50;;
62903;SDS011;49000;50.698;13.322;2023-04-06T04:57:06;9.80;;;7.23;;
62903;SDS011;49000;50.698;13.322;2023-04-06T04:59:32;12.03;;;6.60;;
62903;SDS011;49000;50.698;13.322;2023-04-06T05:01:58;8.30;;;6.00;;
62903;SDS011;49000;50.698;13.322;2023-04-06T05:04:24;9.93;;;6.93;;
62903;SDS011;49000;50.698;13.322;2023-04-06T05:06:49;9.17;;;7.37;;
62903;SDS011;49000;50.698;13.322;2023-04-06T05:09:15;12.87;;;6.77;;
62903;SDS011;49000;50.698;13.322;2023-04-06T05:11:40;10.73;;;6.70;;
62903;SDS011;49000;50.698;13.322;2023-04-06T05:14:06;11.03;;;6.50;;
62903;SDS011;49000;50.698;13.322;2023-04-06T05:16:32;11.10;;;6.50;;
62903;SDS011;49000;50.698;13.322;2023-04-06T05:18:58;10.33;;;6.90;;
62903;SDS011;49000;50.698;13.322;2023-04-06T05:21:24;9.40;;;6.93;;
62903;SDS011;49000;50.698;13.322;2023-04-06T05:23:51;9.63;;;6.27;;
62903;SDS011;49000;50.698;13.322;2023-04-06T05:26:16;9.30;;;6.73;;
62903;SDS011;49000;50.698;13.322;2023-04-06T05:28:42;9.17;;;6.60;;
62903;SDS011;49000;50.698;13.322;2023-04-06T05:31:09;9.53;;;6.40;;
62903;SDS011;49000;50.698;13.322;2023-04-06T05:33:34;10.20;;;6.40;;
62903;SDS011;49000;50.698;13.322;2023-04-06T05:36:00;9.17;;;5.87;;
62903;SDS011;49000;50.698;13.322;2023-04-06T05:38:26;9.37;;;5.60;;
62903;SDS011;49000;50.698;13.322;2023-04-06T05:40:51;8.07;;;6.37;;
62903;SDS011;49000;50.698;13.322;2023-04-06T05:43:16;9.20;;;5.43;;
62903;SDS011;49000;50.698;13.322;2023-04-06T05:45:44;7.10;;;6.10;;
62903;SDS011;49000;50.698;13.322;2023-04-06T05:48:10;7.50;;;5.33;;
62903;SDS011;49000;50.698;13.322;2023-04-06T05:50:35;7.20;;;5.70;;
62903;SDS011;49000;50.698;13.322;2023-04-06T05:53:01;7.60;;;5.90;;
62903;SDS011;49000;50.698;13.322;2023-04-06T05:55:26;8.60;;;6.47;;
62903;SDS011;49000;50.698;13.322;2023-04-06T05:57:52;7.10;;;5.97;;
62903;SDS011;49000;50.698;13.322;2023-04-06T06:00:18;8.27;;;6.30;;
62903;SDS011;49000;50.698;13.322;2023-04-06T06:02:44;8.03;;;6.03;;
62903;SDS011;49000;50.698;13.322;2023-04-06T06:05:10;10.07;;;5.97;;
62903;SDS011;49000;50.698;13.322;2023-04-06T06:07:35;7.83;;;6.20;;
62903;SDS011;49000;50.698;13.322;2023-04-06T06:10:01;7.53;;;6.13;;
62903;SDS011;49000;50.698;13.322;2023-04-06T06:12:27;9.27;;;6.57;;
62903;SDS011;49000;50.698;13.322;2023-04-06T06:14:52;10.93;;;6.33;;
62903;SDS011;49000;50.698;13.322;2023-04-06T06:17:18;11.70;;;6.20;;
62903;SDS011;49000;50.698;13.322;2023-04-06T06:19:44;8.13;;;6.30;;
62903;SDS011;49000;50.698;13.322;2023-04-06T06:22:09;8.40;;;6.47;;
62903;SDS011;49000;50.698;13.322;2023-04-06T06:24:35;7.43;;;5.93;;
62903;SDS011;49000;50.698;13.322;2023-04-06T06:27:00;7.97;;;5.87;;
62903;SDS011;49000;50.698;13.322;2023-04-06T06:29:26;10.80;;;6.47;;
62903;SDS011;49000;50.698;13.322;2023-04-06T06:31:51;7.83;;;6.00;;
62903;SDS011;49000;50.698;13.322;2023-04-06T06:34:17;10.20;;;6.37;;
62903;SDS011;49000;50.698;13.322;2023-04-06T06:36:42;9.43;;;6.37;;
62903;SDS011;49000;50.698;13.322;2023-04-06T06:39:07;9.50;;;6.77;;
62903;SDS011;49000;50.698;13.322;2023-04-06T06:41:33;9.30;;;6.30;;
62903;SDS011;49000;50.698;13.322;2023-04-06T06:43:58;8.33;;;5.30;;
62903;SDS011;49000;50.698;13.322;2023-04-06T06:46:24;7.40;;;5.00;;
62903;SDS011;49000;50.698;13.322;2023-04-06T06:48:50;8.57;;;6.23;;
62903;SDS011;49000;50.698;13.322;2023-04-06T06:51:15;7.77;;;5.50;;
62903;SDS011;49000;50.698;13.322;2023-04-06T06:53:41;8.90;;;5.70;;
62903;SDS011;49000;50.698;13.322;2023-04-06T06:56:06;8.50;;;6.03;;
62903;SDS011;49000;50.698;13.322;2023-04-06T06:58:32;8.43;;;5.53;;
62903;SDS011;49000;50.698;13.322;2023-04-06T07:00:57;7.40;;;5.53;;
62903;SDS011;49000;50.698;13.322;2023-04-06T07:03:24;8.63;;;5.73;;
62903;SDS011;49000;50.698;13.322;2023-04-06T07:05:50;7.97;;;5.17;;
62903;SDS011;49000;50.698;13.322;2023-04-06T07:08:19;7.80;;;4.73;;
62903;SDS011;49000;50.698;13.322;2023-04-06T07:10:45;6.47;;;4.53;;
62903;SDS011;49000;50.698;13.322;2023-04-06T07:13:11;6.43;;;4.37;;
62903;SDS011;49000;50.698;13.322;2023-04-06T07:15:37;7.17;;;4.80;;
62903;SDS011;49000;50.698;13.322;2023-04-06T07:18:02;7.60;;;4.27;;
62903;SDS011;49000;50.698;13.322;2023-04-06T07:20:28;5.87;;;3.97;;
62903;SDS011;49000;50.698;13.322;2023-04-06T07:22:53;5.90;;;3.70;;
62903;SDS011;49000;50.698;13.322;2023-04-06T07:25:19;4.80;;;3.40;;
62903;SDS011;49000;50.698;13.322;2023-04-06T07:27:45;6.03;;;3.67;;
62903;SDS011;49000;50.698;13.322;2023-04-06T07:30:11;4.27;;;3.40;;
62903;SDS011;49000;50.698;13.322;2023-04-06T07:32:36;5.03;;;3.57;;
62903;SDS011;49000;50.698;13.322;2023-04-06T07:35:02;5.27;;;3.43;;
62903;SDS011;49000;50.698;13.322;2023-04-06T07:37:28;4.40;;;3.40;;
62903;SDS011;49000;50.698;13.322;2023-04-06T07:39:53;5.47;;;3.50;;
62903;SDS011;49000;50.698;13.322;2023-04-06T07:42:19;5.23;;;3.10;;
62903;SDS011;49000;50.698;13.322;2023-04-06T07:44:44;4.43;;;3.20;;
62903;SDS011;49000;50.698;13.322;2023-04-06T07:47:10;4.37;;;3.07;;
62903;SDS011;49000;50.698;13.322;2023-04-06T07:49:35;4.53;;;2.80;;
62903;SDS011;49000;50.698;13.322;2023-04-06T07:52:01;8.07;;;3.30;;
62903;SDS011;49000;50.698;13.322;2023-04-06T07:54:27;4.37;;;3.33;;
62903;SDS011;49000;50.698;13.322;2023-04-06T07:56:53;4.27;;;3.07;;
62903;SDS011;49000;50.698;13.322;2023-04-06T07:59:18;4.03;;;2.90;;
62903;SDS011;49000;50.698;13.322;2023-04-06T08:01:44;6.37;;;2.97;;
62903;SDS011;49000;50.698;13.322;2023-04-06T08:04:09;4.40;;;2.80;;
62903;SDS011;49000;50.698;13.322;2023-04-06T08:06:35;5.10;;;3.73;;
62903;SDS011;49000;50.698;13.322;2023-04-06T08:09:01;6.23;;;3.10;;
62903;SDS011;49000;50.698;13.322;2023-04-06T08:11:27;4.60;;;3.43;;
62903;SDS011;49000;50.698;13.322;2023-04-06T08:13:53;3.90;;;3.20;;
62903;SDS011;49000;50.698;13.322;2023-04-06T08:16:20;4.93;;;3.00;;
62903;SDS011;49000;50.698;13.322;2023-04-06T08:18:46;5.03;;;3.50;;
62903;SDS011;49000;50.698;13.322;2023-04-06T08:21:11;4.80;;;3.50;;
62903;SDS011;49000;50.698;13.322;2023-04-06T08:23:37;3.83;;;3.10;;
62903;SDS011;49000;50.698;13.322;2023-04-06T08:26:02;5.07;;;3.30;;
62903;SDS011;49000;50.698;13.322;2023-04-06T08:28:27;3.50;;;2.87;;
62903;SDS011;49000;50.698;13.322;2023-04-06T08:30:53;4.53;;;3.10;;
62903;SDS011;49000;50.698;13.322;2023-04-06T08:33:18;5.30;;;3.30;;
62903;SDS011;49000;50.698;13.322;2023-04-06T08:35:44;4.60;;;3.57;;
62903;SDS011;49000;50.698;13.322;2023-04-06T08:38:09;5.03;;;3.20;;
62903;SDS011;49000;50.698;13.322;2023-04-06T08:40:36;3.87;;;3.20;;
62903;SDS011;49000;50.698;13.322;2023-04-06T08:43:02;6.67;;;3.70;;
62903;SDS011;49000;50.698;13.322;2023-04-06T08:45:33;3.60;;;3.23;;
62903;SDS011;49000;50.698;13.322;2023-04-06T08:47:58;5.00;;;3.60;;
62903;SDS011;49000;50.698;13.322;2023-04-06T08:50:26;6.23;;;3.50;;
62903;SDS011;49000;50.698;13.322;2023-04-06T08:52:54;5.47;;;3.10;;
62903;SDS011;49000;50.698;13.322;2023-04-06T08:55:20;4.33;;;3.67;;
62903;SDS011;49000;50.698;13.322;2023-04-06T08:57:47;4.47;;;3.70;;
62903;SDS011;49000;50.698;13.322;2023-04-06T09:00:13;5.20;;;3.50;;
62903;SDS011;49000;50.698;13.322;2023-04-06T09:02:41;5.20;;;3.53;;
62903;SDS011;49000;50.698;13.322;2023-04-06T09:05:08;4.93;;;2.83;;
62903;SDS011;49000;50.698;13.322;2023-04-06T09:07:35;6.70;;;3.30;;
62903;SDS011;49000;50.698;13.322;2023-04-06T09:10:02;4.57;;;3.70;;
62903;SDS011;49000;50.698;13.322;2023-04-06T09:12:29;4.47;;;3.40;;
62903;SDS011;49000;50.698;13.322;2023-04-06T09:14:56;4.60;;;3.10;;
62903;SDS011;49000;50.698;13.322;2023-04-06T09:17:23;5.47;;;3.30;;
62903;SDS011;49000;50.698;13.322;2023-04-06T09:19:50;4.43;;;3.17;;
62903;SDS011;49000;50.698;13.322;2023-04-06T09:22:16;4.80;;;3.50;;
62903;SDS011;49000;50.698;13.322;2023-04-06T09:24:43;3.30;;;2.80;;
62903;SDS011;49000;50.698;13.322;2023-04-06T09:27:14;3.47;;;3.10;;
62903;SDS011;49000;50.698;13.322;2023-04-06T09:29:40;3.67;;;3.10;;
62903;SDS011;49000;50.698;13.322;2023-04-06T09:32:06;4.37;;;2.90;;
62903;SDS011;49000;50.698;13.322;2023-04-06T09:34:40;5.33;;;2.90;;
62903;SDS011;49000;50.698;13.322;2023-04-06T09:37:12;3.70;;;2.93;;
62903;SDS011;49000;50.698;13.322;2023-04-06T09:39:38;4.10;;;3.30;;
62903;SDS011;49000;50.698;13.322;2023-04-06T09:42:04;3.17;;;2.70;;
62903;SDS011;49000;50.698;13.322;2023-04-06T09:44:29;3.43;;;3.00;;
62903;SDS011;49000;50.698;13.322;2023-04-06T09:46:55;3.90;;;3.00;;
62903;SDS011;49000;50.698;13.322;2023-04-06T09:49:20;3.50;;;3.03;;
62903;SDS011;49000;50.698;13.322;2023-04-06T09:51:52;3.80;;;2.80;;
62903;SDS011;49000;50.698;13.322;2023-04-06T09:54:21;3.20;;;2.50;;
62903;SDS011;49000;50.698;13.322;2023-04-06T09:56:51;5.87;;;3.20;;
62903;SDS011;49000;50.698;13.322;2023-04-06T10:02:05;3.47;;;3.00;;
62903;SDS011;49000;50.698;13.322;2023-04-06T10:07:36;3.93;;;2.93;;
62903;SDS011;49000;50.698;13.322;2023-04-06T10:10:05;4.33;;;3.20;;
62903;SDS011;49000;50.698;13.322;2023-04-06T10:12:31;4.40;;;3.43;;
62903;SDS011;49000;50.698;13.322;2023-04-06T10:14:57;4.47;;;3.40;;
62903;SDS011;49000;50.698;13.322;2023-04-06T10:17:22;6.00;;;3.30;;
62903;SDS011;49000;50.698;13.322;2023-04-06T10:19:52;5.77;;;3.37;;
62903;SDS011;49000;50.698;13.322;2023-04-06T10:22:31;5.13;;;3.70;;
62903;SDS011;49000;50.698;13.322;2023-04-06T10:25:01;3.60;;;3.07;;
62903;SDS011;49000;50.698;13.322;2023-04-06T10:27:28;3.50;;;3.20;;
62903;SDS011;49000;50.698;13.322;2023-04-06T10:29:54;3.40;;;2.87;;
62903;SDS011;49000;50.698;13.322;2023-04-06T10:37:46;5.10;;;3.27;;
62903;SDS011;49000;50.698;13.322;2023-04-06T10:40:19;3.87;;;3.23;;
62903;SDS011;49000;50.698;13.322;2023-04-06T10:42:45;3.70;;;3.20;;
62903;SDS011;49000;50.698;13.322;2023-04-06T10:48:14;3.77;;;3.00;;
62903;SDS011;49000;50.698;13.322;2023-04-06T10:50:42;9.50;;;3.53;;
62903;SDS011;49000;50.698;13.322;2023-04-06T10:53:09;3.43;;;2.87;;
62903;SDS011;49000;50.698;13.322;2023-04-06T10:55:35;3.63;;;3.10;;
62903;SDS011;49000;50.698;13.322;2023-04-06T10:58:07;4.43;;;3.17;;
62903;SDS011;49000;50.698;13.322;2023-04-06T11:00:33;4.30;;;3.23;;
62903;SDS011;49000;50.698;13.322;2023-04-06T11:02:59;4.10;;;3.03;;
62903;SDS011;49000;50.698;13.322;2023-04-06T11:05:25;4.13;;;3.00;;
62903;SDS011;49000;50.698;13.322;2023-04-06T11:07:51;4.13;;;3.43;;
62903;SDS011;49000;50.698;13.322;2023-04-06T11:10:21;4.00;;;3.10;;
62903;SDS011;49000;50.698;13.322;2023-04-06T11:12:52;3.20;;;2.87;;
62903;SDS011;49000;50.698;13.322;2023-04-06T11:15:19;5.07;;;3.17;;
62903;SDS011;49000;50.698;13.322;2023-04-06T11:17:45;4.83;;;3.23;;
62903;SDS011;49000;50.698;13.322;2023-04-06T11:20:11;3.93;;;2.93;;
62903;SDS011;49000;50.698;13.322;2023-04-06T11:22:47;3.33;;;3.00;;
62903;SDS011;49000;50.698;13.322;2023-04-06T11:25:16;5.00;;;3.00;;
62903;SDS011;49000;50.698;13.322;2023-04-06T11:27:42;3.90;;;3.43;;
62903;SDS011;49000;50.698;13.322;2023-04-06T11:30:09;3.67;;;3.30;;
62903;SDS011;49000;50.698;13.322;2023-04-06T11:32:42;4.50;;;3.20;;
62903;SDS011;49000;50.698;13.322;2023-04-06T11:35:24;5.80;;;3.20;;
62903;SDS011;49000;50.698;13.322;2023-04-06T11:37:50;4.70;;;3.60;;
62903;SDS011;49000;50.698;13.322;2023-04-06T11:40:20;3.23;;;2.90;;
62903;SDS011;49000;50.698;13.322;2023-04-06T11:42:53;3.40;;;3.00;;
62903;SDS011;49000;50.698;13.322;2023-04-06T11:45:19;6.93;;;3.00;;
62903;SDS011;49000;50.698;13.322;2023-04-06T11:47:54;3.87;;;3.00;;
62903;SDS011;49000;50.698;13.322;2023-04-06T11:50:22;3.47;;;3.10;;
62903;SDS011;49000;50.698;13.322;2023-04-06T11:52:47;3.73;;;3.03;;
62903;SDS011;49000;50.698;13.322;2023-04-06T11:55:24;4.80;;;3.43;;
62903;SDS011;49000;50.698;13.322;2023-04-06T11:57:49;4.33;;;3.30;;
62903;SDS011;49000;50.698;13.322;2023-04-06T12:00:16;4.93;;;3.20;;
62903;SDS011;49000;50.698;13.322;2023-04-06T12:02:45;4.10;;;3.07;;
62903;SDS011;49000;50.698;13.322;2023-04-06T12:05:11;3.80;;;3.00;;
62903;SDS011;49000;50.698;13.322;2023-04-06T12:07:36;3.50;;;3.20;;
62903;SDS011;49000;50.698;13.322;2023-04-06T12:10:02;4.27;;;2.83;;
62903;SDS011;49000;50.698;13.322;2023-04-06T12:12:29;3.87;;;3.13;;
62903;SDS011;49000;50.698;13.322;2023-04-06T12:14:56;3.37;;;3.07;;
62903;SDS011;49000;50.698;13.322;2023-04-06T12:17:21;5.07;;;3.90;;
62903;SDS011;49000;50.698;13.322;2023-04-06T12:19:48;3.93;;;3.43;;
62903;SDS011;49000;50.698;13.322;2023-04-06T12:22:13;4.07;;;3.57;;
62903;SDS011;49000;50.698;13.322;2023-04-06T12:24:39;4.50;;;3.67;;
62903;SDS011;49000;50.698;13.322;2023-04-06T12:27:05;4.10;;;3.70;;
62903;SDS011;49000;50.698;13.322;2023-04-06T12:29:30;3.80;;;3.50;;
62903;SDS011;49000;50.698;13.322;2023-04-06T12:31:56;5.17;;;3.93;;
62903;SDS011;49000;50.698;13.322;2023-04-06T12:34:21;4.37;;;3.63;;
62903;SDS011;49000;50.698;13.322;2023-04-06T12:36:47;3.63;;;3.33;;
62903;SDS011;49000;50.698;13.322;2023-04-06T12:39:12;4.17;;;3.60;;
62903;SDS011;49000;50.698;13.322;2023-04-06T12:41:38;6.47;;;4.10;;
62903;SDS011;49000;50.698;13.322;2023-04-06T12:44:06;4.83;;;4.00;;
62903;SDS011;49000;50.698;13.322;2023-04-06T12:46:31;3.77;;;3.40;;
62903;SDS011;49000;50.698;13.322;2023-04-06T12:48:57;4.30;;;3.53;;
62903;SDS011;49000;50.698;13.322;2023-04-06T12:51:24;4.43;;;3.50;;
62903;SDS011;49000;50.698;13.322;2023-04-06T12:53:52;3.90;;;3.60;;
62903;SDS011;49000;50.698;13.322;2023-04-06T12:56:18;3.73;;;3.20;;
62903;SDS011;49000;50.698;13.322;2023-04-06T12:58:44;4.87;;;3.63;;
62903;SDS011;49000;50.698;13.322;2023-04-06T13:01:10;3.97;;;3.50;;
62903;SDS011;49000;50.698;13.322;2023-04-06T13:03:37;4.73;;;3.50;;
62903;SDS011;49000;50.698;13.322;2023-04-06T13:06:03;4.23;;;3.37;;
62903;SDS011;49000;50.698;13.322;2023-04-06T13:08:29;4.47;;;3.77;;
62903;SDS011;49000;50.698;13.322;2023-04-06T13:10:54;3.47;;;3.17;;
62903;SDS011;49000;50.698;13.322;2023-04-06T13:13:22;4.27;;;3.87;;
62903;SDS011;49000;50.698;13.322;2023-04-06T13:15:52;4.80;;;3.17;;
62903;SDS011;49000;50.698;13.322;2023-04-06T13:18:18;5.37;;;3.80;;
62903;SDS011;49000;50.698;13.322;2023-04-06T13:20:44;4.17;;;3.60;;
62903;SDS011;49000;50.698;13.322;2023-04-06T13:23:11;4.70;;;3.67;;
62903;SDS011;49000;50.698;13.322;2023-04-06T13:25:37;3.93;;;3.53;;
62903;SDS011;49000;50.698;13.322;2023-04-06T13:28:02;5.13;;;4.10;;
62903;SDS011;49000;50.698;13.322;2023-04-06T13:30:28;6.37;;;4.17;;
62903;SDS011;49000;50.698;13.322;2023-04-06T13:32:53;4.37;;;3.97;;
62903;SDS011;49000;50.698;13.322;2023-04-06T13:35:19;4.60;;;3.83;;
62903;SDS011;49000;50.698;13.322;2023-04-06T13:37:45;6.20;;;3.57;;
62903;SDS011;49000;50.698;13.322;2023-04-06T13:40:10;5.37;;;4.00;;
62903;SDS011;49000;50.698;13.322;2023-04-06T13:42:36;5.07;;;4.07;;
62903;SDS011;49000;50.698;13.322;2023-04-06T13:45:05;3.93;;;3.50;;
62903;SDS011;49000;50.698;13.322;2023-04-06T13:47:30;6.03;;;4.40;;
62903;SDS011;49000;50.698;13.322;2023-04-06T13:49:56;4.03;;;3.70;;
62903;SDS011;49000;50.698;13.322;2023-04-06T13:52:21;4.20;;;3.80;;
62903;SDS011;49000;50.698;13.322;2023-04-06T13:54:48;3.60;;;3.30;;
62903;SDS011;49000;50.698;13.322;2023-04-06T13:57:14;4.30;;;3.37;;
62903;SDS011;49000;50.698;13.322;2023-04-06T13:59:39;4.10;;;3.70;;
62903;SDS011;49000;50.698;13.322;2023-04-06T14:02:06;4.37;;;3.67;;
62903;SDS011;49000;50.698;13.322;2023-04-06T14:04:33;4.97;;;3.70;;
62903;SDS011;49000;50.698;13.322;2023-04-06T14:06:59;4.33;;;3.73;;
62903;SDS011;49000;50.698;13.322;2023-04-06T14:09:26;4.60;;;3.47;;
62903;SDS011;49000;50.698;13.322;2023-04-06T14:11:52;4.20;;;3.80;;
62903;SDS011;49000;50.698;13.322;2023-04-06T14:14:18;4.50;;;3.80;;
62903;SDS011;49000;50.698;13.322;2023-04-06T14:16:43;4.60;;;3.93;;
62903;SDS011;49000;50.698;13.322;2023-04-06T14:19:10;4.07;;;3.67;;
62903;SDS011;49000;50.698;13.322;2023-04-06T14:21:37;3.53;;;3.23;;
62903;SDS011;49000;50.698;13.322;2023-04-06T14:24:04;4.07;;;3.67;;
62903;SDS011;49000;50.698;13.322;2023-04-06T14:26:30;4.47;;;3.87;;
62903;SDS011;49000;50.698;13.322;2023-04-06T14:28:56;3.90;;;3.47;;
62903;SDS011;49000;50.698;13.322;2023-04-06T14:31:23;4.43;;;3.80;;
62903;SDS011;49000;50.698;13.322;2023-04-06T14:33:49;4.60;;;3.93;;
62903;SDS011;49000;50.698;13.322;2023-04-06T14:36:14;6.50;;;3.87;;
62903;SDS011;49000;50.698;13.322;2023-04-06T14:38:40;4.67;;;3.70;;
62903;SDS011;49000;50.698;13.322;2023-04-06T14:41:06;4.27;;;3.87;;